sensor_id;sensor_type;location;lat;lon;timestamp;pressure;altitude;pressure_sealevel;temperature;humidity
51468;BME280;37545;45.302;-122.946;2023-04-20T00:01:13;101766.53;;;11.78;58.20
51468;BME280;37545;45.302;-122.946;2023-04-20T00:03:41;101778.59;;;11.77;58.71
51468;BME280;37545;45.302;-122.946;2023-04-20T00:06:10;101776.38;;;11.65;57.41
51468;BME280;37545;45.302;-122.946;2023-04-20T00:08:39;101782.91;;;11.56;53.96
51468;BME280;37545;45.302;-122.946;2023-04-20T00:11:09;101778.78;;;11.61;56.74
51468;BME280;37545;45.302;-122.946;2023-04-20T00:13:38;101777.47;;;11.70;58.16
51468;BME280;37545;45.302;-122.946;2023-04-20T00:16:07;101770.13;;;11.81;56.57
51468;BME280;37545;45.302;-122.946;2023-04-20T00:18:37;101778.38;;;11.92;59.88
51468;BME280;37545;45.302;-122.946;2023-04-20T00:21:06;101775.09;;;11.96;56.92
51468;BME280;37545;45.302;-122.946;2023-04-20T00:23:34;101773.81;;;12.07;56.30
51468;BME280;37545;45.302;-122.946;2023-04-20T00:26:03;101782.00;;;12.18;57.75
51468;BME280;37545;45.302;-122.946;2023-04-20T00:28:32;101786.47;;;12.22;51.25
51468;BME280;37545;45.302;-122.946;2023-04-20T00:31:00;101786.59;;;12.25;51.69
51468;BME280;37545;45.302;-122.946;2023-04-20T00:33:29;101798.06;;;12.30;52.83
51468;BME280;37545;45.302;-122.946;2023-04-20T00:35:59;101792.81;;;12.29;52.74
51468;BME280;37545;45.302;-122.946;2023-04-20T00:38:28;101792.31;;;12.39;52.91
51468;BME280;37545;45.302;-122.946;2023-04-20T00:40:57;101795.06;;;12.42;49.47
51468;BME280;37545;45.302;-122.946;2023-04-20T00:43:25;101797.47;;;12.38;49.32
51468;BME280;37545;45.302;-122.946;2023-04-20T00:45:54;101793.75;;;12.31;50.97
51468;BME280;37545;45.302;-122.946;2023-04-20T00:48:23;101799.81;;;12.31;50.56
51468;BME280;37545;45.302;-122.946;2023-04-20T00:50:52;101799.81;;;12.31;49.10
51468;BME280;37545;45.302;-122.946;2023-04-20T00:53:22;101808.38;;;12.29;48.98
51468;BME280;37545;45.302;-122.946;2023-04-20T00:55:51;101803.25;;;12.30;50.91
51468;BME280;37545;45.302;-122.946;2023-04-20T00:58:20;101812.09;;;12.35;51.29
51468;BME280;37545;45.302;-122.946;2023-04-20T01:01:02;101808.56;;;12.33;47.21
51468;BME280;37545;45.302;-122.946;2023-04-20T01:03:31;101809.91;;;12.24;48.46
51468;BME280;37545;45.302;-122.946;2023-04-20T01:06:00;101799.09;;;12.13;48.63
51468;BME280;37545;45.302;-122.946;2023-04-20T01:08:30;101814.41;;;12.07;48.36
51468;BME280;37545;45.302;-122.946;2023-04-20T01:10:59;101821.13;;;12.02;50.39
51468;BME280;37545;45.302;-122.946;2023-04-20T01:13:28;101824.59;;;12.02;49.61
51468;BME280;37545;45.302;-122.946;2023-04-20T01:15:58;101825.31;;;11.98;50.39
51468;BME280;37545;45.302;-122.946;2023-04-20T01:18:27;101824.97;;;11.90;50.81
51468;BME280;37545;45.302;-122.946;2023-04-20T01:20:55;101832.50;;;11.84;48.56
51468;BME280;37545;45.302;-122.946;2023-04-20T01:23:26;101829.84;;;11.83;47.03
51468;BME280;37545;45.302;-122.946;2023-04-20T01:25:54;101831.69;;;11.66;47.10
51468;BME280;37545;45.302;-122.946;2023-04-20T01:28:23;101840.94;;;11.59;48.21
51468;BME280;37545;45.302;-122.946;2023-04-20T01:30:52;101848.53;;;11.55;47.38
51468;BME280;37545;45.302;-122.946;2023-04-20T01:33:20;101849.06;;;11.47;48.46
51468;BME280;37545;45.302;-122.946;2023-04-20T01:35:50;101849.69;;;11.42;50.15
51468;BME280;37545;45.302;-122.946;2023-04-20T01:38:20;101854.03;;;11.43;50.07
51468;BME280;37545;45.302;-122.946;2023-04-20T01:40:51;101854.94;;;11.43;50.03
51468;BME280;37545;45.302;-122.946;2023-04-20T01:43:20;101861.91;;;11.44;50.37
51468;BME280;37545;45.302;-122.946;2023-04-20T01:45:49;101856.72;;;11.44;48.91
51468;BME280;37545;45.302;-122.946;2023-04-20T01:48:18;101861.00;;;11.44;50.56
51468;BME280;37545;45.302;-122.946;2023-04-20T01:50:49;101855.91;;;11.45;50.21
51468;BME280;37545;45.302;-122.946;2023-04-20T01:53:18;101867.97;;;11.45;50.54
51468;BME280;37545;45.302;-122.946;2023-04-20T01:55:48;101864.47;;;11.44;50.15
51468;BME280;37545;45.302;-122.946;2023-04-20T01:58:18;101871.31;;;11.42;49.48
51468;BME280;37545;45.302;-122.946;2023-04-20T02:00:47;101878.97;;;11.39;48.87
51468;BME280;37545;45.302;-122.946;2023-04-20T02:03:16;101884.91;;;11.37;49.06
51468;BME280;37545;45.302;-122.946;2023-04-20T02:05:45;101882.09;;;11.32;49.08
51468;BME280;37545;45.302;-122.946;2023-04-20T02:08:14;101894.97;;;11.30;47.73
51468;BME280;37545;45.302;-122.946;2023-04-20T02:10:42;101888.72;;;11.25;48.91
51468;BME280;37545;45.302;-122.946;2023-04-20T02:13:11;101891.88;;;11.20;49.63
51468;BME280;37545;45.302;-122.946;2023-04-20T02:15:42;101901.16;;;11.15;49.52
51468;BME280;37545;45.302;-122.946;2023-04-20T02:18:10;101895.84;;;11.11;49.06
51468;BME280;37545;45.302;-122.946;2023-04-20T02:20:41;101895.66;;;11.07;47.55
51468;BME280;37545;45.302;-122.946;2023-04-20T02:23:10;101891.97;;;11.02;48.89
51468;BME280;37545;45.302;-122.946;2023-04-20T02:25:40;101901.94;;;10.94;49.13
51468;BME280;37545;45.302;-122.946;2023-04-20T02:28:08;101900.88;;;10.89;49.24
51468;BME280;37545;45.302;-122.946;2023-04-20T02:30:37;101906.56;;;10.82;50.26
51468;BME280;37545;45.302;-122.946;2023-04-20T02:33:14;101907.25;;;10.78;50.14
51468;BME280;37545;45.302;-122.946;2023-04-20T02:35:42;101910.34;;;10.71;50.12
51468;BME280;37545;45.302;-122.946;2023-04-20T02:38:11;101910.81;;;10.62;50.15
51468;BME280;37545;45.302;-122.946;2023-04-20T02:40:40;101917.47;;;10.57;50.78
51468;BME280;37545;45.302;-122.946;2023-04-20T02:43:09;101921.47;;;10.50;52.00
51468;BME280;37545;45.302;-122.946;2023-04-20T02:45:38;101924.69;;;10.46;51.74
51468;BME280;37545;45.302;-122.946;2023-04-20T02:48:06;101926.84;;;10.37;51.40
51468;BME280;37545;45.302;-122.946;2023-04-20T02:50:37;101925.66;;;10.30;51.48
51468;BME280;37545;45.302;-122.946;2023-04-20T02:53:05;101929.69;;;10.25;51.59
51468;BME280;37545;45.302;-122.946;2023-04-20T02:55:34;101937.22;;;10.20;51.81
51468;BME280;37545;45.302;-122.946;2023-04-20T02:58:03;101943.69;;;10.12;52.03
51468;BME280;37545;45.302;-122.946;2023-04-20T03:00:32;101944.28;;;10.06;52.82
51468;BME280;37545;45.302;-122.946;2023-04-20T03:03:01;101943.09;;;10.00;52.55
51468;BME280;37545;45.302;-122.946;2023-04-20T03:05:30;101948.75;;;9.93;53.46
51468;BME280;37545;45.302;-122.946;2023-04-20T03:08:00;101946.56;;;9.84;53.95
51468;BME280;37545;45.302;-122.946;2023-04-20T03:10:30;101952.47;;;9.81;53.16
51468;BME280;37545;45.302;-122.946;2023-04-20T03:12:59;101956.34;;;9.73;53.57
51468;BME280;37545;45.302;-122.946;2023-04-20T03:15:27;101960.41;;;9.68;53.81
51468;BME280;37545;45.302;-122.946;2023-04-20T03:17:56;101957.34;;;9.59;54.97
51468;BME280;37545;45.302;-122.946;2023-04-20T03:20:25;101958.69;;;9.52;54.72
51468;BME280;37545;45.302;-122.946;2023-04-20T03:22:54;101965.31;;;9.47;58.23
51468;BME280;37545;45.302;-122.946;2023-04-20T03:25:24;101962.41;;;9.41;60.05
51468;BME280;37545;45.302;-122.946;2023-04-20T03:27:53;101970.72;;;9.35;60.60
51468;BME280;37545;45.302;-122.946;2023-04-20T03:30:21;101971.84;;;9.24;60.23
51468;BME280;37545;45.302;-122.946;2023-04-20T03:32:50;101984.78;;;9.09;59.71
51468;BME280;37545;45.302;-122.946;2023-04-20T03:35:19;101983.41;;;8.99;60.18
51468;BME280;37545;45.302;-122.946;2023-04-20T03:37:48;101989.19;;;8.95;60.97
51468;BME280;37545;45.302;-122.946;2023-04-20T03:40:16;102000.94;;;8.90;60.65
51468;BME280;37545;45.302;-122.946;2023-04-20T03:42:47;102002.41;;;8.85;61.76
51468;BME280;37545;45.302;-122.946;2023-04-20T03:45:15;102010.59;;;8.78;62.12
51468;BME280;37545;45.302;-122.946;2023-04-20T03:47:44;102006.69;;;8.70;63.04
51468;BME280;37545;45.302;-122.946;2023-04-20T03:50:13;102019.31;;;8.65;64.72
51468;BME280;37545;45.302;-122.946;2023-04-20T03:52:42;102021.47;;;8.57;64.61
51468;BME280;37545;45.302;-122.946;2023-04-20T03:55:11;102033.22;;;8.52;67.87
51468;BME280;37545;45.302;-122.946;2023-04-20T03:57:39;102031.88;;;8.44;65.13
51468;BME280;37545;45.302;-122.946;2023-04-20T04:00:11;102040.91;;;8.37;66.03
51468;BME280;37545;45.302;-122.946;2023-04-20T04:02:39;102037.94;;;8.31;66.29
51468;BME280;37545;45.302;-122.946;2023-04-20T04:05:08;102036.00;;;8.27;67.32
51468;BME280;37545;45.302;-122.946;2023-04-20T04:07:37;102044.19;;;8.20;68.69
51468;BME280;37545;45.302;-122.946;2023-04-20T04:10:07;102042.94;;;8.13;67.22
51468;BME280;37545;45.302;-122.946;2023-04-20T04:12:35;102047.69;;;8.07;67.38
51468;BME280;37545;45.302;-122.946;2023-04-20T04:15:05;102048.19;;;8.02;66.92
51468;BME280;37545;45.302;-122.946;2023-04-20T04:17:35;102060.75;;;7.95;68.14
51468;BME280;37545;45.302;-122.946;2023-04-20T04:20:04;102056.78;;;7.87;69.38
51468;BME280;37545;45.302;-122.946;2023-04-20T04:22:34;102054.19;;;7.72;70.04
51468;BME280;37545;45.302;-122.946;2023-04-20T04:25:04;102042.53;;;7.51;73.47
51468;BME280;37545;45.302;-122.946;2023-04-20T04:27:33;102058.91;;;7.51;76.13
51468;BME280;37545;45.302;-122.946;2023-04-20T04:30:03;102070.66;;;7.48;77.18
51468;BME280;37545;45.302;-122.946;2023-04-20T04:32:31;102068.69;;;7.44;77.15
51468;BME280;37545;45.302;-122.946;2023-04-20T04:35:03;102079.81;;;7.29;78.61
51468;BME280;37545;45.302;-122.946;2023-04-20T04:37:32;102077.63;;;7.09;78.53
51468;BME280;37545;45.302;-122.946;2023-04-20T04:40:00;102083.34;;;6.91;78.03
51468;BME280;37545;45.302;-122.946;2023-04-20T04:42:32;102097.41;;;6.83;79.14
51468;BME280;37545;45.302;-122.946;2023-04-20T04:45:01;102099.75;;;6.80;79.13
51468;BME280;37545;45.302;-122.946;2023-04-20T04:47:33;102096.31;;;6.80;78.97
51468;BME280;37545;45.302;-122.946;2023-04-20T04:50:04;102095.31;;;6.78;78.63
51468;BME280;37545;45.302;-122.946;2023-04-20T04:52:34;102102.72;;;6.73;79.13
51468;BME280;37545;45.302;-122.946;2023-04-20T04:55:04;102104.28;;;6.71;78.96
51468;BME280;37545;45.302;-122.946;2023-04-20T04:57:35;102102.34;;;6.67;78.60
51468;BME280;37545;45.302;-122.946;2023-04-20T05:00:05;102106.38;;;6.63;78.83
51468;BME280;37545;45.302;-122.946;2023-04-20T05:02:37;102102.50;;;6.57;81.26
51468;BME280;37545;45.302;-122.946;2023-04-20T05:05:08;102111.72;;;6.41;81.75
51468;BME280;37545;45.302;-122.946;2023-04-20T05:07:37;102118.41;;;6.26;82.77
51468;BME280;37545;45.302;-122.946;2023-04-20T05:10:06;102113.31;;;6.14;83.79
51468;BME280;37545;45.302;-122.946;2023-04-20T05:12:35;102124.75;;;6.06;84.19
51468;BME280;37545;45.302;-122.946;2023-04-20T05:15:05;102119.72;;;6.07;85.22
51468;BME280;37545;45.302;-122.946;2023-04-20T05:17:33;102124.84;;;6.07;85.22
51468;BME280;37545;45.302;-122.946;2023-04-20T05:20:02;102124.94;;;6.09;84.66
51468;BME280;37545;45.302;-122.946;2023-04-20T05:22:33;102119.81;;;6.09;84.13
51468;BME280;37545;45.302;-122.946;2023-04-20T05:25:02;102124.84;;;6.07;84.25
51468;BME280;37545;45.302;-122.946;2023-04-20T05:27:32;102124.63;;;6.04;83.65
51468;BME280;37545;45.302;-122.946;2023-04-20T05:30:01;102123.63;;;6.02;83.87
51468;BME280;37545;45.302;-122.946;2023-04-20T05:32:30;102118.41;;;6.01;84.09
51468;BME280;37545;45.302;-122.946;2023-04-20T05:34:58;102120.84;;;5.99;84.59
51468;BME280;37545;45.302;-122.946;2023-04-20T05:37:27;102119.06;;;5.98;84.43
51468;BME280;37545;45.302;-122.946;2023-04-20T05:39:58;102120.66;;;5.96;85.03
51468;BME280;37545;45.302;-122.946;2023-04-20T05:42:26;102119.66;;;5.94;85.20
51468;BME280;37545;45.302;-122.946;2023-04-20T05:44:55;102125.44;;;5.92;85.32
51468;BME280;37545;45.302;-122.946;2023-04-20T05:47:23;102119.00;;;5.73;86.46
51468;BME280;37545;45.302;-122.946;2023-04-20T05:49:52;102137.84;;;5.74;88.67
51468;BME280;37545;45.302;-122.946;2023-04-20T05:52:21;102137.19;;;5.64;88.93
51468;BME280;37545;45.302;-122.946;2023-04-20T05:54:50;102141.13;;;5.59;88.08
51468;BME280;37545;45.302;-122.946;2023-04-20T05:57:20;102146.13;;;5.58;87.73
51468;BME280;37545;45.302;-122.946;2023-04-20T05:59:49;102147.16;;;5.60;87.51
51468;BME280;37545;45.302;-122.946;2023-04-20T06:02:18;102143.00;;;5.62;87.88
51468;BME280;37545;45.302;-122.946;2023-04-20T06:04:46;102155.19;;;5.64;87.42
51468;BME280;37545;45.302;-122.946;2023-04-20T06:07:15;102158.50;;;5.63;86.97
51468;BME280;37545;45.302;-122.946;2023-04-20T06:09:44;102156.75;;;5.62;87.29
51468;BME280;37545;45.302;-122.946;2023-04-20T06:12:12;102154.16;;;5.62;87.34
51468;BME280;37545;45.302;-122.946;2023-04-20T06:14:43;102161.00;;;5.62;88.04
51468;BME280;37545;45.302;-122.946;2023-04-20T06:17:11;102160.09;;;5.61;87.95
51468;BME280;37545;45.302;-122.946;2023-04-20T06:19:40;102158.31;;;5.60;88.22
51468;BME280;37545;45.302;-122.946;2023-04-20T06:22:09;102165.00;;;5.58;89.41
51468;BME280;37545;45.302;-122.946;2023-04-20T06:24:38;102166.81;;;5.59;89.13
51468;BME280;37545;45.302;-122.946;2023-04-20T06:27:07;102165.88;;;5.59;89.17
51468;BME280;37545;45.302;-122.946;2023-04-20T06:29:36;102169.38;;;5.59;89.76
51468;BME280;37545;45.302;-122.946;2023-04-20T06:32:06;102187.34;;;5.59;89.67
51468;BME280;37545;45.302;-122.946;2023-04-20T06:34:35;102182.09;;;5.58;89.91
51468;BME280;37545;45.302;-122.946;2023-04-20T06:37:05;102190.47;;;5.55;90.44
51468;BME280;37545;45.302;-122.946;2023-04-20T06:39:34;102190.81;;;5.48;92.48
51468;BME280;37545;45.302;-122.946;2023-04-20T06:42:03;102194.94;;;5.46;93.95
51468;BME280;37545;45.302;-122.946;2023-04-20T06:44:32;102198.25;;;5.45;93.08
51468;BME280;37545;45.302;-122.946;2023-04-20T06:47:00;102197.50;;;5.46;93.08
51468;BME280;37545;45.302;-122.946;2023-04-20T06:49:31;102200.28;;;5.49;92.88
51468;BME280;37545;45.302;-122.946;2023-04-20T06:51:59;102206.09;;;5.46;93.40
51468;BME280;37545;45.302;-122.946;2023-04-20T06:54:28;102219.13;;;5.38;93.33
51468;BME280;37545;45.302;-122.946;2023-04-20T06:56:57;102219.69;;;5.34;94.11
51468;BME280;37545;45.302;-122.946;2023-04-20T06:59:26;102217.22;;;5.35;94.60
51468;BME280;37545;45.302;-122.946;2023-04-20T07:01:55;102213.31;;;5.40;94.61
51468;BME280;37545;45.302;-122.946;2023-04-20T07:04:24;102208.09;;;5.39;93.51
51468;BME280;37545;45.302;-122.946;2023-04-20T07:06:54;102206.28;;;5.38;92.87
51468;BME280;37545;45.302;-122.946;2023-04-20T07:09:23;102211.34;;;5.36;92.73
51468;BME280;37545;45.302;-122.946;2023-04-20T07:11:52;102218.38;;;5.39;92.75
51468;BME280;37545;45.302;-122.946;2023-04-20T07:14:21;102218.44;;;5.40;92.28
51468;BME280;37545;45.302;-122.946;2023-04-20T07:16:51;102221.03;;;5.40;91.60
51468;BME280;37545;45.302;-122.946;2023-04-20T07:19:20;102217.56;;;5.40;90.69
51468;BME280;37545;45.302;-122.946;2023-04-20T07:21:49;102224.38;;;5.39;90.95
51468;BME280;37545;45.302;-122.946;2023-04-20T07:24:19;102226.16;;;5.40;91.20
51468;BME280;37545;45.302;-122.946;2023-04-20T07:26:48;102237.22;;;5.39;91.01
51468;BME280;37545;45.302;-122.946;2023-04-20T07:29:17;102229.38;;;5.38;90.48
51468;BME280;37545;45.302;-122.946;2023-04-20T07:31:45;102228.38;;;5.36;90.29
51468;BME280;37545;45.302;-122.946;2023-04-20T07:34:14;102235.88;;;5.33;90.95
51468;BME280;37545;45.302;-122.946;2023-04-20T07:36:42;102235.53;;;5.28;91.25
51468;BME280;37545;45.302;-122.946;2023-04-20T07:39:11;102240.44;;;5.25;91.29
51468;BME280;37545;45.302;-122.946;2023-04-20T07:41:42;102234.16;;;5.21;91.54
51468;BME280;37545;45.302;-122.946;2023-04-20T07:44:12;102229.59;;;5.17;91.32
51468;BME280;37545;45.302;-122.946;2023-04-20T07:46:41;102237.94;;;5.15;91.16
51468;BME280;37545;45.302;-122.946;2023-04-20T07:49:09;102233.47;;;5.12;91.91
51468;BME280;37545;45.302;-122.946;2023-04-20T07:51:38;102236.84;;;5.11;91.72
51468;BME280;37545;45.302;-122.946;2023-04-20T07:54:06;102238.41;;;5.09;91.87
51468;BME280;37545;45.302;-122.946;2023-04-20T07:56:35;102240.72;;;5.06;91.87
51468;BME280;37545;45.302;-122.946;2023-04-20T07:59:05;102241.38;;;5.03;92.28
51468;BME280;37545;45.302;-122.946;2023-04-20T08:01:34;102242.84;;;5.00;92.40
51468;BME280;37545;45.302;-122.946;2023-04-20T08:04:03;102254.50;;;4.96;92.42
51468;BME280;37545;45.302;-122.946;2023-04-20T08:06:32;102246.59;;;4.93;92.67
51468;BME280;37545;45.302;-122.946;2023-04-20T08:09:01;102253.94;;;4.89;92.86
51468;BME280;37545;45.302;-122.946;2023-04-20T08:11:30;102248.59;;;4.86;93.49
51468;BME280;37545;45.302;-122.946;2023-04-20T08:13:59;102244.75;;;4.80;93.25
51468;BME280;37545;45.302;-122.946;2023-04-20T08:16:29;102252.97;;;4.76;92.94
51468;BME280;37545;45.302;-122.946;2023-04-20T08:18:58;102248.53;;;4.74;93.69
51468;BME280;37545;45.302;-122.946;2023-04-20T08:21:27;102251.88;;;4.73;93.52
51468;BME280;37545;45.302;-122.946;2023-04-20T08:23:55;102249.19;;;4.71;93.58
51468;BME280;37545;45.302;-122.946;2023-04-20T08:26:24;102248.94;;;4.68;93.47
51468;BME280;37545;45.302;-122.946;2023-04-20T08:28:53;102247.81;;;4.65;93.25
51468;BME280;37545;45.302;-122.946;2023-04-20T08:31:21;102243.47;;;4.64;93.96
51468;BME280;37545;45.302;-122.946;2023-04-20T08:33:52;102243.34;;;4.62;93.85
51468;BME280;37545;45.302;-122.946;2023-04-20T08:36:21;102239.75;;;4.60;94.06
51468;BME280;37545;45.302;-122.946;2023-04-20T08:38:53;102245.56;;;4.57;93.78
51468;BME280;37545;45.302;-122.946;2023-04-20T08:41:21;102246.09;;;4.53;94.09
51468;BME280;37545;45.302;-122.946;2023-04-20T08:43:51;102251.13;;;4.52;93.94
51468;BME280;37545;45.302;-122.946;2023-04-20T08:46:20;102247.31;;;4.47;93.51
51468;BME280;37545;45.302;-122.946;2023-04-20T08:48:52;102241.91;;;4.44;93.92
51468;BME280;37545;45.302;-122.946;2023-04-20T08:51:21;102250.13;;;4.39;94.88
51468;BME280;37545;45.302;-122.946;2023-04-20T08:53:50;102249.13;;;4.37;95.27
51468;BME280;37545;45.302;-122.946;2023-04-20T08:56:20;102246.56;;;4.37;96.30
51468;BME280;37545;45.302;-122.946;2023-04-20T08:59:00;102248.13;;;4.35;96.40
51468;BME280;37545;45.302;-122.946;2023-04-20T09:01:29;102250.56;;;4.34;96.64
51468;BME280;37545;45.302;-122.946;2023-04-20T09:04:00;102248.75;;;4.33;96.61
51468;BME280;37545;45.302;-122.946;2023-04-20T09:06:29;102249.53;;;4.32;96.77
51468;BME280;37545;45.302;-122.946;2023-04-20T09:08:58;102248.66;;;4.31;97.03
51468;BME280;37545;45.302;-122.946;2023-04-20T09:11:27;102248.53;;;4.30;96.84
51468;BME280;37545;45.302;-122.946;2023-04-20T09:14:01;102250.06;;;4.28;96.70
51468;BME280;37545;45.302;-122.946;2023-04-20T09:16:30;102253.41;;;4.27;96.97
51468;BME280;37545;45.302;-122.946;2023-04-20T09:19:01;102254.97;;;4.25;97.06
51468;BME280;37545;45.302;-122.946;2023-04-20T09:21:30;102237.91;;;4.25;97.35
51468;BME280;37545;45.302;-122.946;2023-04-20T09:24:00;102247.16;;;4.23;96.44
51468;BME280;37545;45.302;-122.946;2023-04-20T09:26:31;102243.56;;;4.21;97.30
51468;BME280;37545;45.302;-122.946;2023-04-20T09:29:01;102244.34;;;4.20;97.93
51468;BME280;37545;45.302;-122.946;2023-04-20T09:31:30;102239.97;;;4.19;97.14
51468;BME280;37545;45.302;-122.946;2023-04-20T09:34:02;102249.34;;;4.18;97.37
51468;BME280;37545;45.302;-122.946;2023-04-20T09:36:38;102246.41;;;4.14;97.74
51468;BME280;37545;45.302;-122.946;2023-04-20T09:39:08;102248.47;;;4.18;97.82
51468;BME280;37545;45.302;-122.946;2023-04-20T09:41:38;102251.81;;;4.17;96.79
51468;BME280;37545;45.302;-122.946;2023-04-20T09:44:08;102248.97;;;4.14;96.45
51468;BME280;37545;45.302;-122.946;2023-04-20T09:46:37;102249.78;;;4.13;97.35
51468;BME280;37545;45.302;-122.946;2023-04-20T09:49:09;102247.97;;;4.12;97.52
51468;BME280;37545;45.302;-122.946;2023-04-20T09:51:40;102251.31;;;4.11;98.26
51468;BME280;37545;45.302;-122.946;2023-04-20T09:54:11;102257.31;;;4.11;97.89
51468;BME280;37545;45.302;-122.946;2023-04-20T09:56:39;102246.84;;;4.08;97.53
51468;BME280;37545;45.302;-122.946;2023-04-20T09:59:08;102242.38;;;4.06;98.13
51468;BME280;37545;45.302;-122.946;2023-04-20T10:01:37;102249.13;;;4.05;97.90
51468;BME280;37545;45.302;-122.946;2023-04-20T10:04:08;102246.47;;;4.04;98.11
51468;BME280;37545;45.302;-122.946;2023-04-20T10:06:50;102251.34;;;4.01;97.12
51468;BME280;37545;45.302;-122.946;2023-04-20T10:09:21;102245.19;;;3.98;97.02
51468;BME280;37545;45.302;-122.946;2023-04-20T10:11:50;102250.06;;;3.95;96.12
51468;BME280;37545;45.302;-122.946;2023-04-20T10:14:26;102248.97;;;3.92;97.50
51468;BME280;37545;45.302;-122.946;2023-04-20T10:17:00;102247.16;;;3.91;96.51
51468;BME280;37545;45.302;-122.946;2023-04-20T10:19:41;102244.44;;;3.89;96.98
51468;BME280;37545;45.302;-122.946;2023-04-20T10:22:12;102236.16;;;3.82;96.75
51468;BME280;37545;45.302;-122.946;2023-04-20T10:24:41;102250.88;;;3.84;97.34
51468;BME280;37545;45.302;-122.946;2023-04-20T10:27:17;102243.72;;;3.80;97.74
51468;BME280;37545;45.302;-122.946;2023-04-20T10:29:45;102250.41;;;3.78;97.23
51468;BME280;37545;45.302;-122.946;2023-04-20T10:32:22;102257.06;;;3.76;97.32
51468;BME280;37545;45.302;-122.946;2023-04-20T10:35:03;102268.72;;;3.72;97.08
51468;BME280;37545;45.302;-122.946;2023-04-20T10:37:32;102259.25;;;3.71;97.65
51468;BME280;37545;45.302;-122.946;2023-04-20T10:40:01;102264.25;;;3.70;98.00
51468;BME280;37545;45.302;-122.946;2023-04-20T10:42:41;102272.72;;;3.69;97.20
51468;BME280;37545;45.302;-122.946;2023-04-20T10:45:10;102268.34;;;3.68;97.52
51468;BME280;37545;45.302;-122.946;2023-04-20T10:47:39;102264.50;;;3.63;97.46
51468;BME280;37545;45.302;-122.946;2023-04-20T10:50:11;102269.88;;;3.66;97.01
51468;BME280;37545;45.302;-122.946;2023-04-20T10:52:41;102264.66;;;3.64;98.04
51468;BME280;37545;45.302;-122.946;2023-04-20T10:55:20;102260.16;;;3.62;97.81
51468;BME280;37545;45.302;-122.946;2023-04-20T10:57:49;102267.59;;;3.59;97.75
51468;BME280;37545;45.302;-122.946;2023-04-20T11:00:20;102263.13;;;3.56;97.78
51468;BME280;37545;45.302;-122.946;2023-04-20T11:02:50;102263.63;;;3.52;97.29
51468;BME280;37545;45.302;-122.946;2023-04-20T11:05:21;102265.06;;;3.48;97.13
51468;BME280;37545;45.302;-122.946;2023-04-20T11:07:51;102263.25;;;3.47;98.82
51468;BME280;37545;45.302;-122.946;2023-04-20T11:10:21;102268.38;;;3.47;98.34
51468;BME280;37545;45.302;-122.946;2023-04-20T11:12:50;102274.38;;;3.48;98.53
51468;BME280;37545;45.302;-122.946;2023-04-20T11:15:30;102268.22;;;3.46;99.42
51468;BME280;37545;45.302;-122.946;2023-04-20T11:18:07;102259.66;;;3.45;99.82
51468;BME280;37545;45.302;-122.946;2023-04-20T11:20:49;102256.34;;;3.46;99.70
51468;BME280;37545;45.302;-122.946;2023-04-20T11:23:19;102254.69;;;3.47;100.00
51468;BME280;37545;45.302;-122.946;2023-04-20T11:25:52;102256.47;;;3.48;100.00
51468;BME280;37545;45.302;-122.946;2023-04-20T11:28:21;102260.69;;;3.47;100.00
51468;BME280;37545;45.302;-122.946;2023-04-20T11:30:51;102254.56;;;3.45;100.00
51468;BME280;37545;45.302;-122.946;2023-04-20T11:33:30;102251.25;;;3.46;100.00
51468;BME280;37545;45.302;-122.946;2023-04-20T11:36:01;102256.47;;;3.48;100.00
51468;BME280;37545;45.302;-122.946;2023-04-20T11:38:31;102255.72;;;3.49;100.00
51468;BME280;37545;45.302;-122.946;2023-04-20T11:41:00;102252.38;;;3.50;100.00
51468;BME280;37545;45.302;-122.946;2023-04-20T11:43:33;102249.06;;;3.51;100.00
51468;BME280;37545;45.302;-122.946;2023-04-20T11:46:02;102248.13;;;3.50;100.00
51468;BME280;37545;45.302;-122.946;2023-04-20T11:48:39;102246.59;;;3.52;100.00
51468;BME280;37545;45.302;-122.946;2023-04-20T11:51:10;102245.72;;;3.52;100.00
51468;BME280;37545;45.302;-122.946;2023-04-20T11:53:39;102236.38;;;3.52;100.00
51468;BME280;37545;45.302;-122.946;2023-04-20T11:56:08;102241.75;;;3.55;100.00
51468;BME280;37545;45.302;-122.946;2023-04-20T11:58:36;102222.69;;;3.52;100.00
51468;BME280;37545;45.302;-122.946;2023-04-20T12:01:05;102232.63;;;3.59;100.00
51468;BME280;37545;45.302;-122.946;2023-04-20T12:03:34;102223.28;;;3.60;100.00
51468;BME280;37545;45.302;-122.946;2023-04-20T12:06:02;102227.66;;;3.61;100.00
51468;BME280;37545;45.302;-122.946;2023-04-20T12:08:33;102227.16;;;3.65;100.00
51468;BME280;37545;45.302;-122.946;2023-04-20T12:11:03;102231.63;;;3.67;100.00
51468;BME280;37545;45.302;-122.946;2023-04-20T12:13:31;102230.81;;;3.68;100.00
51468;BME280;37545;45.302;-122.946;2023-04-20T12:16:00;102230.97;;;3.70;100.00
51468;BME280;37545;45.302;-122.946;2023-04-20T12:18:29;102220.97;;;3.73;100.00
51468;BME280;37545;45.302;-122.946;2023-04-20T12:20:57;102220.31;;;3.75;100.00
51468;BME280;37545;45.302;-122.946;2023-04-20T12:23:27;102224.66;;;3.76;100.00
51468;BME280;37545;45.302;-122.946;2023-04-20T12:25:57;102226.59;;;3.79;100.00
51468;BME280;37545;45.302;-122.946;2023-04-20T12:28:26;102225.69;;;3.78;100.00
51468;BME280;37545;45.302;-122.946;2023-04-20T12:30:55;102230.91;;;3.80;100.00
51468;BME280;37545;45.302;-122.946;2023-04-20T12:33:24;102215.56;;;3.80;100.00
51468;BME280;37545;45.302;-122.946;2023-04-20T12:35:52;102213.78;;;3.79;100.00
51468;BME280;37545;45.302;-122.946;2023-04-20T12:38:21;102212.75;;;3.77;100.00